createdAt,value
2019-01-25T00:04:01.461Z,1.08
2019-01-25T00:06:50.294Z,1.08
2019-01-25T00:09:39.126Z,1.05
2019-01-25T00:12:27.991Z,1.03
2019-01-25T00:15:16.846Z,1.04
2019-01-25T00:18:06.024Z,1.05
2019-01-25T00:20:55.930Z,1.05
2019-01-25T00:23:45.501Z,1.05
2019-01-25T00:26:34.345Z,1.06
2019-01-25T00:29:23.188Z,1.07
2019-01-25T00:32:12.066Z,1.06
2019-01-25T00:35:00.921Z,1.06
2019-01-25T00:37:49.731Z,1.08
2019-01-25T00:40:38.596Z,1.10
2019-01-25T00:46:36.812Z,1.13
2019-01-25T00:49:26.000Z,0.88
2019-01-25T00:52:14.831Z,1.14
2019-01-25T00:58:32.143Z,1.14
2019-01-25T01:01:21.031Z,1.13
2019-01-25T01:04:09.943Z,1.12
2019-01-25T01:06:52.134Z,1.10
2019-01-25T01:09:40.955Z,1.10
2019-01-25T01:12:29.856Z,1.08
2019-01-25T01:15:39.575Z,1.09
2019-01-25T01:18:28.479Z,0.61
2019-01-25T01:21:17.363Z,1.11
2019-01-25T01:24:06.356Z,1.11
2019-01-25T01:26:55.233Z,1.11
2019-01-25T01:29:44.135Z,1.09
2019-01-25T01:32:33.029Z,1.09
2019-01-25T01:35:21.925Z,1.10
2019-01-25T01:38:10.847Z,1.11
2019-01-25T01:40:59.730Z,1.14
2019-01-25T01:43:48.576Z,0.67
2019-01-25T01:46:37.486Z,1.16
2019-01-25T01:49:26.365Z,0.93
2019-01-25T01:52:15.216Z,1.20
2019-01-25T01:58:00.114Z,1.26
2019-01-25T02:00:49.041Z,1.27
2019-01-25T02:03:37.889Z,1.27
2019-01-25T02:06:19.805Z,1.28
2019-01-25T02:09:08.801Z,1.29
2019-01-25T02:15:33.372Z,1.21
2019-01-25T02:18:22.211Z,1.26
2019-01-25T02:21:11.100Z,1.24
2019-01-25T02:24:00.024Z,1.23
2019-01-25T02:26:48.891Z,1.23
2019-01-25T02:29:37.740Z,1.22
2019-01-25T02:32:26.741Z,1.21
2019-01-25T02:35:15.748Z,1.20
2019-01-25T02:38:04.651Z,1.18
2019-01-25T02:40:53.487Z,1.18
2019-01-25T02:43:42.315Z,1.20
2019-01-25T02:46:31.176Z,1.22
2019-01-25T02:49:19.991Z,1.22
2019-01-25T02:52:08.839Z,0.65
2019-01-25T02:54:57.722Z,1.21
2019-01-25T02:57:46.821Z,1.23
2019-01-25T03:00:35.649Z,1.25
2019-01-25T03:03:24.482Z,1.25
2019-01-25T03:06:06.591Z,1.26
2019-01-25T03:08:55.401Z,1.30
2019-01-25T03:11:44.231Z,1.30
2019-01-25T03:14:33.054Z,1.30
2019-01-25T03:17:21.881Z,1.31
2019-01-25T03:20:31.611Z,1.31
2019-01-25T03:23:20.468Z,1.31
2019-01-25T03:26:09.380Z,1.34
2019-01-25T03:28:58.194Z,1.34
2019-01-25T03:31:47.082Z,0.75
2019-01-25T03:34:35.947Z,1.37
2019-01-25T03:37:24.763Z,1.38
2019-01-25T03:40:34.529Z,1.01
2019-01-25T03:43:23.425Z,1.42
2019-01-25T03:46:12.404Z,1.43
2019-01-25T03:49:01.243Z,1.45
2019-01-25T03:51:50.049Z,1.47
2019-01-25T03:54:39.005Z,1.47
2019-01-25T03:57:27.866Z,1.47
2019-01-25T04:00:37.689Z,1.46
2019-01-25T04:03:26.519Z,1.46
2019-01-25T04:06:15.366Z,1.46
2019-01-25T04:08:57.052Z,1.45
2019-01-25T04:11:46.008Z,0.98
2019-01-25T04:14:34.920Z,1.45
2019-01-25T04:17:23.729Z,1.46
2019-01-25T04:20:33.485Z,1.46
2019-01-25T04:23:22.320Z,1.47
2019-01-25T04:26:11.139Z,1.47
2019-01-25T04:28:59.991Z,1.48
2019-01-25T04:31:48.838Z,0.92
2019-01-25T04:34:37.681Z,1.49
2019-01-25T04:37:26.509Z,1.50
2019-01-25T04:40:36.282Z,1.35
2019-01-25T04:43:18.041Z,1.51
2019-01-25T04:46:07.001Z,1.51
2019-01-25T04:48:55.814Z,1.50
2019-01-25T04:51:44.650Z,1.49
2019-01-25T04:54:33.520Z,1.50
2019-01-25T04:57:22.350Z,1.42
2019-01-25T05:00:32.103Z,1.51
2019-01-25T05:03:14.379Z,1.28
2019-01-25T05:06:03.293Z,1.51
2019-01-25T05:08:52.122Z,1.52
2019-01-25T05:11:33.779Z,1.52
2019-01-25T05:14:22.614Z,1.52
2019-01-25T05:17:11.459Z,1.51
2019-01-25T05:20:00.393Z,1.53
2019-01-25T05:23:10.143Z,1.53
2019-01-25T05:25:58.934Z,1.54
2019-01-25T05:28:47.828Z,1.53
2019-01-25T05:31:36.700Z,1.53
2019-01-25T05:34:25.547Z,1.52
2019-01-25T05:37:14.426Z,1.52
2019-01-25T05:40:03.511Z,1.52
2019-01-25T05:42:52.472Z,1.54
2019-01-25T05:46:00.658Z,1.56
2019-01-25T05:48:49.462Z,1.57
2019-01-25T05:51:38.318Z,1.27
2019-01-25T05:54:27.128Z,1.60
2019-01-25T05:57:15.969Z,1.62
2019-01-25T06:00:44.730Z,1.65
2019-01-25T06:03:33.572Z,1.58
2019-01-25T06:06:14.893Z,1.66
2019-01-25T06:12:18.993Z,1.67
2019-01-25T06:15:28.710Z,1.67
2019-01-25T06:18:17.552Z,1.70
2019-01-25T06:21:06.472Z,1.72
2019-01-25T06:23:55.526Z,1.64
2019-01-25T06:27:05.246Z,1.75
2019-01-25T06:29:54.184Z,1.77
2019-01-25T06:32:43.075Z,1.78
2019-01-25T06:35:31.913Z,1.79
2019-01-25T06:38:01.408Z,1.81
2019-01-25T06:40:50.251Z,1.79
2019-01-25T06:43:39.056Z,1.42
2019-01-25T06:46:27.974Z,1.80
2019-01-25T06:49:16.826Z,1.50
2019-01-25T06:52:06.002Z,1.81
2019-01-25T06:54:56.536Z,1.53
2019-01-25T07:01:03.803Z,1.80
2019-01-25T07:03:52.676Z,1.77
2019-01-25T07:06:41.506Z,1.62
2019-01-25T07:09:30.432Z,1.75
2019-01-25T07:12:19.276Z,1.74
2019-01-25T07:15:29.008Z,1.73
2019-01-25T07:18:17.863Z,1.72
2019-01-25T07:21:06.742Z,1.15
2019-01-25T07:23:55.658Z,1.70
2019-01-25T07:26:44.465Z,1.68
2019-01-25T07:29:33.382Z,1.68
2019-01-25T07:32:22.235Z,1.67
2019-01-25T07:35:11.552Z,1.69
2019-01-25T07:38:00.407Z,1.71
2019-01-25T07:40:49.348Z,1.71
2019-01-25T07:43:38.224Z,1.72
2019-01-25T07:46:27.009Z,1.72
2019-01-25T07:49:16.033Z,1.42
2019-01-25T07:52:05.313Z,1.76
2019-01-25T07:54:54.209Z,1.77
2019-01-25T08:01:11.528Z,1.80
2019-01-25T08:04:00.472Z,1.79
2019-01-25T08:06:49.481Z,1.79
2019-01-25T08:09:38.356Z,1.80
2019-01-25T08:12:27.198Z,1.80
2019-01-25T08:15:35.336Z,1.80
2019-01-25T08:18:24.178Z,1.81
2019-01-25T08:20:53.644Z,1.83
2019-01-25T08:23:42.480Z,1.84
2019-01-25T08:26:31.390Z,1.88
2019-01-25T08:29:27.708Z,1.89
2019-01-25T08:32:10.933Z,1.93
2019-01-25T08:34:40.497Z,1.96
2019-01-25T08:37:29.350Z,1.99
2019-01-25T08:40:18.742Z,2.01
2019-01-25T08:43:08.925Z,2.06
2019-01-25T08:45:58.345Z,2.08
2019-01-25T08:48:47.224Z,1.94
2019-01-25T08:51:36.595Z,2.13
2019-01-25T08:54:25.749Z,2.16
2019-01-25T08:57:08.541Z,2.21
2019-01-25T08:59:57.516Z,2.26
2019-01-25T09:02:46.384Z,2.31
2019-01-25T09:05:35.241Z,2.38
2019-01-25T09:08:24.170Z,2.42
2019-01-25T09:11:13.096Z,2.44
2019-01-25T09:13:42.558Z,2.49
2019-01-25T09:16:31.387Z,2.53
2019-01-25T09:19:00.928Z,2.57
2019-01-25T09:21:49.794Z,2.63
2019-01-25T09:24:38.672Z,2.67
2019-01-25T09:27:27.584Z,2.72
2019-01-25T09:30:38.154Z,2.75
2019-01-25T09:33:27.027Z,2.78
2019-01-25T09:35:56.555Z,2.81
2019-01-25T09:38:26.144Z,2.84
2019-01-25T09:40:55.803Z,2.86
2019-01-25T09:43:25.278Z,2.86
2019-01-25T09:45:54.869Z,2.86
2019-01-25T09:48:24.358Z,2.87
2019-01-25T09:51:13.243Z,2.91
2019-01-25T09:54:02.058Z,2.49
2019-01-25T09:56:50.894Z,2.99
2019-01-25T09:59:39.711Z,3.03
2019-01-25T10:02:28.563Z,3.06
2019-01-25T10:05:17.483Z,3.09
2019-01-25T10:08:06.404Z,2.95
2019-01-25T10:10:48.081Z,3.16
2019-01-25T10:13:36.929Z,3.21
2019-01-25T10:16:25.770Z,2.82
2019-01-25T10:19:14.626Z,3.32
2019-01-25T10:22:03.492Z,3.37
2019-01-25T10:24:52.334Z,3.41
2019-01-25T10:27:41.290Z,3.46
2019-01-25T10:30:30.349Z,3.50
2019-01-25T10:33:19.136Z,3.51
2019-01-25T10:36:08.065Z,3.54
2019-01-25T10:38:56.885Z,3.58
2019-01-25T10:41:26.375Z,3.61
2019-01-25T10:44:15.191Z,3.66
2019-01-25T10:47:04.290Z,3.69
2019-01-25T10:49:53.103Z,3.73
2019-01-25T10:52:42.038Z,3.77
2019-01-25T10:55:31.004Z,3.81
2019-01-25T10:58:19.562Z,3.86
2019-01-25T11:01:08.385Z,3.88
2019-01-25T11:03:57.294Z,3.92
2019-01-25T11:06:46.165Z,3.72
2019-01-25T11:09:37.999Z,3.95
2019-01-25T11:12:16.205Z,3.98
2019-01-25T11:15:25.980Z,4.00
2019-01-25T11:18:14.784Z,4.02
2019-01-25T11:21:03.643Z,4.07
2019-01-25T11:23:52.494Z,4.12
2019-01-25T11:26:41.367Z,4.16
2019-01-25T11:29:30.213Z,3.79
2019-01-25T11:32:19.158Z,4.22
2019-01-25T11:35:08.157Z,4.28
2019-01-25T11:37:57.119Z,4.32
2019-01-25T11:40:46.088Z,4.35
2019-01-25T11:43:34.944Z,3.89
2019-01-25T11:46:23.834Z,4.43
2019-01-25T11:48:53.338Z,4.48
2019-01-25T11:51:42.199Z,4.52
2019-01-25T11:54:38.052Z,4.53
2019-01-25T11:57:26.908Z,4.56
2019-01-25T12:00:36.110Z,4.56
2019-01-25T12:03:25.037Z,4.71
2019-01-25T12:06:13.852Z,4.43
2019-01-25T12:09:02.960Z,4.90
2019-01-25T12:11:51.878Z,5.02
2019-01-25T12:14:40.720Z,5.08
2019-01-25T12:17:29.695Z,5.33
2019-01-25T12:20:39.492Z,5.44
2019-01-25T12:23:28.309Z,5.40
2019-01-25T12:26:17.243Z,5.60
2019-01-25T12:29:06.205Z,5.65
2019-01-25T12:31:55.051Z,5.19
2019-01-25T12:34:43.859Z,5.77
2019-01-25T12:37:34.421Z,5.84
2019-01-25T12:40:23.268Z,5.90
2019-01-25T12:43:12.150Z,5.97
2019-01-25T12:45:41.729Z,6.03
2019-01-25T12:48:30.533Z,6.07
2019-01-25T12:51:19.957Z,6.10
2019-01-25T12:54:08.816Z,6.12
2019-01-25T12:56:57.653Z,6.17
2019-01-25T12:59:46.464Z,6.21
2019-01-25T13:02:35.525Z,6.26
2019-01-25T13:05:24.594Z,6.29
2019-01-25T13:08:13.460Z,6.35
2019-01-25T13:10:54.718Z,6.40
2019-01-25T13:13:43.572Z,6.46
2019-01-25T13:16:32.453Z,6.51
2019-01-25T13:19:21.353Z,6.56
2019-01-25T13:22:10.244Z,6.58
2019-01-25T13:24:59.105Z,6.61
2019-01-25T13:27:48.085Z,6.65
2019-01-25T13:30:37.006Z,6.67
2019-01-25T13:33:25.887Z,6.69
2019-01-25T13:36:14.917Z,6.69
2019-01-25T13:42:18.644Z,6.71
2019-01-25T13:45:28.396Z,6.60
2019-01-25T13:48:17.283Z,6.35
2019-01-25T13:51:06.189Z,6.73
2019-01-25T13:53:55.018Z,6.71
2019-01-25T13:56:43.865Z,6.70
2019-01-25T13:59:32.810Z,6.70
2019-01-25T14:02:21.672Z,6.68
2019-01-25T14:05:10.614Z,6.66
2019-01-25T14:07:52.453Z,6.63
2019-01-25T14:10:41.355Z,6.60
2019-01-25T14:13:34.183Z,6.59
2019-01-25T14:16:20.824Z,6.57
2019-01-25T14:19:09.667Z,6.29
2019-01-25T14:21:58.484Z,6.53
2019-01-25T14:24:47.352Z,6.53
2019-01-25T14:27:36.204Z,6.52
2019-01-25T14:30:45.950Z,6.52
2019-01-25T14:33:34.767Z,6.52
2019-01-25T14:36:23.664Z,6.53
2019-01-25T14:39:12.509Z,6.54
2019-01-25T14:42:01.366Z,6.48
2019-01-25T14:44:50.223Z,6.55
2019-01-25T14:47:39.110Z,6.55
2019-01-25T14:50:48.873Z,6.55
2019-01-25T14:53:37.711Z,6.54
2019-01-25T14:56:26.605Z,6.52
2019-01-25T14:59:08.583Z,6.50
2019-01-25T15:01:57.434Z,6.47
2019-01-25T15:04:46.281Z,6.42
2019-01-25T15:07:35.202Z,6.38
2019-01-25T15:10:44.930Z,6.34
2019-01-25T15:13:33.835Z,6.32
2019-01-25T15:16:22.738Z,6.29
2019-01-25T15:19:11.637Z,6.26
2019-01-25T15:22:00.555Z,6.25
2019-01-25T15:24:49.493Z,6.24
2019-01-25T15:27:38.412Z,6.23
2019-01-25T15:30:48.190Z,6.19
2019-01-25T15:33:37.066Z,6.19
2019-01-25T15:36:25.861Z,6.18
2019-01-25T15:39:08.023Z,6.17
2019-01-25T15:41:56.944Z,6.17
2019-01-25T15:44:45.856Z,6.17
2019-01-25T15:47:34.753Z,5.73
2019-01-25T15:50:42.908Z,6.14
2019-01-25T15:53:31.762Z,6.12
2019-01-25T15:56:20.610Z,6.11
2019-01-25T15:59:09.456Z,6.09
2019-01-25T16:01:58.394Z,6.08
2019-01-25T16:04:47.240Z,6.05
2019-01-25T16:07:36.052Z,6.03
2019-01-25T16:10:19.076Z,6.00
2019-01-25T16:13:07.962Z,5.99
2019-01-25T16:15:56.878Z,5.98
2019-01-25T16:18:45.348Z,5.97
2019-01-25T16:21:34.308Z,5.98
2019-01-25T16:24:44.055Z,5.98
2019-01-25T16:27:32.872Z,5.99
2019-01-25T16:30:41.108Z,5.99
2019-01-25T16:33:29.962Z,5.98
2019-01-25T16:36:18.829Z,5.96
2019-01-25T16:38:48.435Z,5.95
2019-01-25T16:41:37.285Z,5.92
2019-01-25T16:44:26.201Z,5.91
2019-01-25T16:47:15.025Z,5.91
2019-01-25T16:53:18.949Z,5.93
2019-01-25T16:55:48.478Z,5.57
2019-01-25T16:58:37.314Z,5.91
2019-01-25T17:01:26.168Z,5.89
2019-01-25T17:04:15.003Z,5.87
2019-01-25T17:07:03.853Z,5.85
2019-01-25T17:09:52.728Z,5.62
2019-01-25T17:12:34.858Z,5.81
2019-01-25T17:15:23.867Z,5.79
2019-01-25T17:18:12.776Z,5.77
2019-01-25T17:21:01.665Z,5.60
2019-01-25T17:23:50.593Z,5.72
2019-01-25T17:26:39.567Z,5.63
2019-01-25T17:29:28.422Z,5.63
2019-01-25T17:32:17.345Z,5.58
2019-01-25T17:34:46.912Z,5.53
2019-01-25T17:37:35.788Z,5.48
2019-01-25T17:40:46.822Z,5.44
2019-01-25T17:43:34.680Z,5.39
2019-01-25T17:46:23.539Z,5.36
2019-01-25T17:49:12.354Z,5.34
2019-01-25T17:52:01.232Z,5.29
2019-01-25T17:54:50.236Z,5.26
2019-01-25T17:57:39.141Z,5.22
2019-01-25T18:03:44.819Z,5.15
2019-01-25T18:06:33.728Z,5.12
2019-01-25T18:09:22.618Z,5.08
2019-01-25T18:12:04.291Z,5.03
2019-01-25T18:14:53.205Z,4.99
2019-01-25T18:17:42.142Z,4.95
2019-01-25T18:20:31.031Z,4.93
2019-01-25T18:23:20.027Z,4.89
2019-01-25T18:26:08.939Z,4.87
2019-01-25T18:28:57.847Z,4.84
2019-01-25T18:31:46.654Z,4.42
2019-01-25T18:34:35.631Z,4.80
2019-01-25T18:37:24.513Z,4.43
2019-01-25T18:40:13.511Z,4.77
2019-01-25T18:43:02.413Z,4.26
2019-01-25T18:45:51.301Z,4.75
2019-01-25T18:48:40.153Z,4.73
2019-01-25T18:51:29.038Z,4.71
2019-01-25T18:54:17.838Z,4.69
2019-01-25T18:57:06.437Z,4.67
2019-01-25T18:59:55.314Z,4.66
2019-01-25T19:02:24.835Z,4.52
2019-01-25T19:05:13.868Z,4.67
2019-01-25T19:08:02.791Z,4.67
2019-01-25T19:10:51.760Z,4.53
2019-01-25T19:13:33.534Z,4.68
2019-01-25T19:16:22.482Z,4.68
2019-01-25T19:19:11.461Z,4.68
2019-01-25T19:22:00.234Z,4.67
2019-01-25T19:24:49.168Z,4.68
2019-01-25T19:27:38.001Z,4.68
2019-01-25T19:30:47.783Z,4.66
2019-01-25T19:33:36.720Z,4.14
2019-01-25T19:36:25.589Z,4.64
2019-01-25T19:39:14.493Z,4.61
2019-01-25T19:42:03.439Z,4.62
2019-01-25T19:44:52.334Z,4.60
2019-01-25T19:47:41.266Z,4.60
2019-01-25T19:50:30.195Z,4.57
2019-01-25T19:53:19.152Z,4.55
2019-01-25T19:56:08.135Z,4.10
2019-01-25T19:58:57.095Z,4.51
2019-01-25T20:01:45.905Z,4.50
2019-01-25T20:04:34.752Z,4.51
2019-01-25T20:07:23.660Z,4.53
2019-01-25T20:10:13.019Z,4.55
2019-01-25T20:12:54.729Z,4.57
2019-01-25T20:15:43.750Z,4.60
2019-01-25T20:18:32.596Z,4.62
2019-01-25T20:21:21.428Z,4.65
2019-01-25T20:24:10.351Z,4.65
2019-01-25T20:26:59.154Z,4.67
2019-01-25T20:29:48.096Z,4.69
2019-01-25T20:32:36.902Z,4.57
2019-01-25T20:35:46.680Z,4.74
2019-01-25T20:38:35.576Z,4.75
2019-01-25T20:41:24.470Z,4.78
2019-01-25T20:44:13.408Z,4.81
2019-01-25T20:47:02.318Z,4.83
2019-01-25T20:49:51.143Z,4.84
2019-01-25T20:52:40.052Z,4.84
2019-01-25T20:55:29.061Z,4.86
2019-01-25T20:58:17.938Z,4.89
2019-01-25T21:01:06.839Z,4.90
2019-01-25T21:03:55.789Z,4.92
2019-01-25T21:06:44.667Z,4.93
2019-01-25T21:09:33.559Z,4.93
2019-01-25T21:12:22.495Z,4.92
2019-01-25T21:15:05.414Z,4.90
2019-01-25T21:17:54.593Z,4.91
2019-01-25T21:21:04.388Z,4.92
2019-01-25T21:23:53.345Z,4.94
2019-01-25T21:26:42.195Z,4.99
2019-01-25T21:29:31.147Z,5.00
2019-01-25T21:32:20.008Z,4.58
2019-01-25T21:35:29.757Z,5.04
2019-01-25T21:38:18.642Z,5.05
2019-01-25T21:41:07.564Z,5.06
2019-01-25T21:43:56.382Z,5.06
2019-01-25T21:46:45.297Z,5.08
2019-01-25T21:49:34.126Z,5.10
2019-01-25T21:52:23.052Z,5.12
2019-01-25T21:55:32.807Z,5.13
2019-01-25T21:58:21.648Z,5.14
2019-01-25T22:01:10.715Z,5.16
2019-01-25T22:03:59.555Z,5.18
2019-01-25T22:06:48.469Z,5.19
2019-01-25T22:09:37.319Z,5.21
2019-01-25T22:12:26.242Z,5.23
2019-01-25T22:15:08.915Z,5.26
2019-01-25T22:17:57.819Z,4.85
2019-01-25T22:20:46.622Z,5.31
2019-01-25T22:23:35.549Z,5.32
2019-01-25T22:26:24.352Z,5.33
2019-01-25T22:29:13.337Z,5.33
2019-01-25T22:32:02.145Z,5.35
2019-01-25T22:34:51.070Z,5.35
2019-01-25T22:37:39.944Z,5.36
2019-01-25T22:43:44.837Z,5.38
2019-01-25T22:46:33.717Z,5.41
2019-01-25T22:49:22.643Z,5.41
2019-01-25T22:52:11.513Z,5.31
2019-01-25T22:55:00.424Z,5.33
2019-01-25T22:57:49.411Z,5.47
2019-01-25T23:04:29.450Z,5.48
2019-01-25T23:07:18.327Z,5.50
2019-01-25T23:10:28.089Z,5.52
2019-01-25T23:13:09.842Z,5.55
2019-01-25T23:15:49.739Z,5.57
2019-01-25T23:18:38.597Z,5.59
2019-01-25T23:21:27.502Z,5.60
2019-01-25T23:24:16.321Z,5.62
2019-01-25T23:27:05.232Z,5.63
2019-01-25T23:29:54.126Z,5.50
2019-01-25T23:32:43.001Z,5.25
2019-01-25T23:35:31.927Z,5.67
2019-01-25T23:38:20.786Z,5.68
2019-01-25T23:40:50.278Z,5.70
2019-01-25T23:43:39.148Z,5.72
2019-01-25T23:46:28.081Z,5.74
2019-01-25T23:49:16.918Z,5.76
2019-01-25T23:52:05.845Z,5.78
2019-01-25T23:54:54.734Z,5.78
2019-01-25T23:57:43.693Z,5.80
